• Join FlightAware (Why Join?)
  • Login
  • US Flag GB Flag 
02:56 EDT


 

Airport Tracker/Info


-or-


 

Live Flight TrackerFlight Track Log ✈ CTL13 ✈ 12-Apr-2013 ✈ KEYE - KMDW

Flight Track Log - Related Links

Times and Time Zones

All times are in EDT time to prevent confusion due to time zone crossing. See the CTL13 flight status page for this flight to view local times or setup timezone preferences in your user account.

Time Position Orientation Groundspeed Altitude Reporting Facility
EDT Latitude Longitude Course Direction KTS MPH feet Rate Location/Type
21:02 39.9000 -86.2833 360° North 140 161 2,500  Level Indianapolis TRACON
21:03 39.9167 -86.3167 303° West 127 146 3,400 780 Climbing Indianapolis TRACON
21:04 39.9500 -86.3500 323° Northwest 130 150 4,100 300 Climbing Indianapolis TRACON
21:05 39.9833 -86.3833 323° Northwest 160 184 4,000 -60 Descending Indianapolis TRACON
21:06 40.0167 -86.4167 323° Northwest 154 177 4,000  Level Indianapolis TRACON
21:07 40.0500 -86.4667 311° West 149 171 4,000  Level Indianapolis TRACON
21:08 40.0833 -86.5000 323° Northwest 148 170 4,000  Level Indianapolis TRACON
21:09 40.1167 -86.5333 323° Northwest 148 170 4,000 -60 Level Indianapolis TRACON
21:11 40.1407 -86.5813 303° West  Level FlightAware Approximate
21:12 40.1947 -86.6333 320° Northwest 149 171 3,900  Level Chicago Center
21:13 40.2228 -86.6675 317° Northwest 149 171 3,900  Level Chicago Center
21:14 40.2547 -86.7050 318° Northwest 148 170 3,900 -60 Level Chicago Center
21:15 40.2867 -86.7425 318° Northwest 146 168 3,800  Descending Chicago Center
21:16 40.3189 -86.7744 323° Northwest 148 170 3,900  Climbing Chicago Center
21:17 40.3489 -86.8119 316° Northwest 145 167 3,900  Level Chicago Center
21:18 40.3493 -86.8470 320° Northwest  Level FlightAware Approximate
21:18 40.3789 -86.8467 319° Northwest 145 167 3,900  Level Chicago Center
21:19 40.3914 -86.8581 325° Northwest 155 178 4,000  Climbing Chicago Center
21:19 40.4086 -86.8842 311° West 147 169 3,900  Descending Chicago Center
21:20 40.4153 -86.9031 295° West 155 178 4,000  Climbing Chicago Center
21:20 40.4386 -86.9189 333° Northwest 146 168 3,900  Descending Chicago Center
21:21 40.4575 -86.9383 322° Northwest 138 159 4,000  Climbing Chicago Center
21:21 40.4706 -86.9564 314° West 149 171 3,900 60 Descending Chicago Center
21:22 40.4872 -86.9747 320° Northwest 144 166 4,100  Climbing Chicago Center
21:22 40.4983 -86.9939 307° West 146 168 3,900 -120 Descending Chicago Center
21:23 40.5164 -87.0108 324° Northwest 145 167 4,000 60 Climbing Chicago Center
21:24 40.5431 -87.0492 312° West 143 165 4,000  Level Chicago Center
21:25 40.5742 -87.0814 322° Northwest 143 165 4,100  Climbing Chicago Center
21:26 40.6139 -87.1006 340° North 145 167 4,000 -60 Descending Chicago Center
21:27 40.6536 -87.1186 341° North 149 171 4,000  Level Chicago Center
21:28 40.7003 -87.1433 338° Northwest 150 173 4,100  Climbing Chicago Center
21:29 40.7375 -87.1639 337° Northwest 149 171 4,100 -60 Level Chicago Center
21:30 40.7758 -87.1847 338° Northwest 149 171 4,000 -60 Descending Chicago Center
21:31 40.8142 -87.2044 339° North 149 171 4,000  Level Chicago Center
21:32 40.8522 -87.2233 339° North 147 169 4,000  Level Chicago Center
21:33 40.8900 -87.2444 337° Northwest 147 169 4,000  Level Chicago Center
21:34 40.9353 -87.2683 338° Northwest 147 169 4,000  Level Chicago Center
21:35 40.9736 -87.2892 338° Northwest 148 170 4,000 -60 Level Chicago Center
21:36 41.0122 -87.3106 337° Northwest 150 173 3,900 -120 Descending Chicago Center
21:37 41.0517 -87.3308 339° North 151 174 3,800  Descending Chicago Center
21:38 41.0906 -87.3503 339° North 151 174 3,900  Climbing Chicago Center
21:39 41.1286 -87.3731 336° Northwest 151 174 3,900  Level Chicago Center
21:40 41.1681 -87.3936 339° North 152 175 3,900  Level Chicago Center
21:41 41.2128 -87.4194 337° Northwest 150 173 3,900  Level Chicago Center
21:42 41.2506 -87.4381 340° North 148 170 3,900  Level Chicago Center
21:43 41.2892 -87.4583 338° Northwest 148 170 3,900  Level Chicago Center
21:44 41.3258 -87.4794 337° Northwest 147 169 3,900  Level Chicago Center
21:45 41.3656 -87.4914 347° North 151 174 3,900  Level Chicago Center
21:47 41.4094 -87.4972 354° North 157 181 3,900 -300 Level Chicago Center
21:48 41.4639 -87.5067 353° North 161 185 3,300 -540 Descending Chicago Center
21:49 41.5097 -87.5158 351° North 165 190 2,900 -240 Descending Chicago Center
21:50 41.5542 -87.5244 352° North 165 190 2,900  Level Chicago Center
21:51 41.5972 -87.5319 353° North 162 186 3,000  Climbing Chicago Center
21:52 41.6372 -87.5489 342° North 155 178 3,000 -60 Level Chicago Center
21:53 41.6656 -87.5872 315° West 150 173 2,900 -300 Descending Chicago Center
21:54 41.7008 -87.6347 315° West 149 171 2,400 -360 Descending Chicago Center
21:54 41.7167 -87.6500 324° Northwest 135 155 2,400 -480 Level Chicago TRACON
21:55 41.7333 -87.7000 294° West 141 162 1,700 -660 Descending Chicago TRACON
21:56 41.7667 -87.7167 340° North 119 137 1,100 -720 Descending Chicago TRACON